createdAt,value
2019-01-28T00:04:05.843Z,2.50
2019-01-28T00:06:47.332Z,2.50
2019-01-28T00:09:28.775Z,2.50
2019-01-28T00:12:10.293Z,2.50
2019-01-28T00:14:52.663Z,2.50
2019-01-28T00:17:34.580Z,2.50
2019-01-28T00:20:16.435Z,2.50
2019-01-28T00:22:58.086Z,2.60
2019-01-28T00:25:38.282Z,2.50
2019-01-28T00:28:19.836Z,2.50
2019-01-28T00:31:02.131Z,2.60
2019-01-28T00:33:44.324Z,2.50
2019-01-28T00:36:25.976Z,2.50
2019-01-28T00:39:07.484Z,2.50
2019-01-28T00:41:49.168Z,2.50
2019-01-28T00:44:30.782Z,2.50
2019-01-28T00:47:12.213Z,2.50
2019-01-28T00:49:53.624Z,2.40
2019-01-28T00:52:35.107Z,2.40
2019-01-28T00:58:26.979Z,2.40
2019-01-28T01:01:09.172Z,2.30
2019-01-28T01:03:51.248Z,2.30
2019-01-28T01:06:32.740Z,2.30
2019-01-28T01:09:14.199Z,2.20
2019-01-28T01:11:44.112Z,2.20
2019-01-28T01:14:33.284Z,2.20
2019-01-28T01:17:22.459Z,2.20
2019-01-28T01:20:04.314Z,2.20
2019-01-28T01:22:46.442Z,2.20
2019-01-28T01:25:28.255Z,2.20
2019-01-28T01:28:09.740Z,2.20
2019-01-28T01:30:51.628Z,2.20
2019-01-28T01:33:33.936Z,2.20
2019-01-28T01:36:15.320Z,2.20
2019-01-28T01:38:56.885Z,2.20
2019-01-28T01:41:39.175Z,2.20
2019-01-28T01:44:21.692Z,2.20
2019-01-28T01:47:04.646Z,2.20
2019-01-28T01:49:53.802Z,2.20
2019-01-28T01:52:35.314Z,2.20
2019-01-28T01:55:17.199Z,2.10
2019-01-28T01:57:58.847Z,2.20
2019-01-28T02:00:40.253Z,2.10
2019-01-28T02:03:22.704Z,2.10
2019-01-28T02:06:02.967Z,2.00
2019-01-28T02:08:44.340Z,2.00
2019-01-28T02:11:14.183Z,1.90
2019-01-28T02:14:03.338Z,1.90
2019-01-28T02:19:53.734Z,1.90
2019-01-28T02:22:35.564Z,1.90
2019-01-28T02:25:17.954Z,1.90
2019-01-28T02:27:59.764Z,1.90
2019-01-28T02:30:41.677Z,1.90
2019-01-28T02:33:23.947Z,1.90
2019-01-28T02:36:04.141Z,1.90
2019-01-28T02:38:46.467Z,1.90
2019-01-28T02:41:28.285Z,1.90
2019-01-28T02:44:09.898Z,1.90
2019-01-28T02:46:51.647Z,2.00
2019-01-28T02:49:31.783Z,2.00
2019-01-28T02:52:20.847Z,2.00
2019-01-28T02:55:02.504Z,2.00
2019-01-28T02:57:44.872Z,2.00
2019-01-28T03:00:26.469Z,1.90
2019-01-28T03:03:08.766Z,1.90
2019-01-28T03:05:50.568Z,1.90
2019-01-28T03:08:32.024Z,1.80
2019-01-28T03:11:13.487Z,1.80
2019-01-28T03:13:55.060Z,1.80
2019-01-28T03:16:37.352Z,1.70
2019-01-28T03:19:18.814Z,1.60
2019-01-28T03:21:58.965Z,1.60
2019-01-28T03:24:40.345Z,1.60
2019-01-28T03:27:22.657Z,1.50
2019-01-28T03:30:04.984Z,1.50
2019-01-28T03:32:46.341Z,1.50
2019-01-28T03:35:27.725Z,1.50
2019-01-28T03:38:09.125Z,1.60
2019-01-28T03:40:51.809Z,1.60
2019-01-28T03:43:33.355Z,1.60
2019-01-28T03:46:15.532Z,1.60
2019-01-28T03:48:57.935Z,1.60
2019-01-28T03:51:39.418Z,1.60
2019-01-28T03:54:20.997Z,1.60
2019-01-28T03:57:02.913Z,1.60
2019-01-28T03:59:44.311Z,1.60
2019-01-28T04:08:56.592Z,1.90
2019-01-28T04:11:45.728Z,1.70
2019-01-28T04:14:27.842Z,1.70
2019-01-28T04:17:09.893Z,1.70
2019-01-28T04:19:52.167Z,1.70
2019-01-28T04:22:33.596Z,1.70
2019-01-28T04:25:15.043Z,1.70
2019-01-28T04:27:56.455Z,1.70
2019-01-28T04:30:38.754Z,1.70
2019-01-28T04:33:20.300Z,1.70
2019-01-28T04:36:02.575Z,1.70
2019-01-28T04:38:43.954Z,1.70
2019-01-28T04:41:25.617Z,1.70
2019-01-28T04:44:07.072Z,1.70
2019-01-28T04:46:49.432Z,1.70
2019-01-28T04:49:31.680Z,1.70
2019-01-28T04:52:13.280Z,1.70
2019-01-28T04:54:54.767Z,1.70
2019-01-28T04:57:36.405Z,1.70
2019-01-28T05:00:17.973Z,1.70
2019-01-28T05:02:59.859Z,1.70
2019-01-28T05:05:41.572Z,1.70
2019-01-28T05:08:23.206Z,1.80
2019-01-28T05:11:05.016Z,1.80
2019-01-28T05:13:46.327Z,1.70
2019-01-28T05:16:28.613Z,1.70
2019-01-28T05:19:09.988Z,1.70
2019-01-28T05:21:40.016Z,1.70
2019-01-28T05:24:09.930Z,1.70
2019-01-28T05:30:14.893Z,1.60
2019-01-28T05:32:56.924Z,1.60
2019-01-28T05:35:39.262Z,1.60
2019-01-28T05:38:21.254Z,1.60
2019-01-28T05:41:03.703Z,1.60
2019-01-28T05:43:43.967Z,1.60
2019-01-28T05:46:26.943Z,1.50
2019-01-28T05:49:09.296Z,1.50
2019-01-28T05:51:51.441Z,1.50
2019-01-28T05:54:32.876Z,1.50
2019-01-28T05:57:02.812Z,1.50
2019-01-28T05:59:32.657Z,1.40
2019-01-28T06:02:21.822Z,1.50
2019-01-28T06:05:11.280Z,1.50
2019-01-28T06:08:12.221Z,1.50
2019-01-28T06:10:53.989Z,1.40
2019-01-28T06:13:35.687Z,1.40
2019-01-28T06:16:17.495Z,1.40
2019-01-28T06:18:59.080Z,1.40
2019-01-28T06:21:41.356Z,1.40
2019-01-28T06:24:23.509Z,1.40
2019-01-28T06:27:05.416Z,1.40
2019-01-28T06:29:50.625Z,1.40
2019-01-28T06:32:32.356Z,1.40
2019-01-28T06:35:14.075Z,1.40
2019-01-28T06:37:55.506Z,1.40
2019-01-28T06:40:44.690Z,1.40
2019-01-28T06:43:33.838Z,1.40
2019-01-28T06:46:15.877Z,1.40
2019-01-28T06:48:57.816Z,1.40
2019-01-28T06:51:39.589Z,1.40
2019-01-28T06:54:21.124Z,1.40
2019-01-28T06:57:04.176Z,1.40
2019-01-28T06:59:45.743Z,1.40
2019-01-28T07:02:27.568Z,1.40
2019-01-28T07:05:09.847Z,1.40
2019-01-28T07:10:34.763Z,1.50
2019-01-28T07:13:05.127Z,1.50
2019-01-28T07:15:35.104Z,1.50
2019-01-28T07:18:05.179Z,1.50
2019-01-28T07:20:35.395Z,1.50
2019-01-28T07:23:05.977Z,1.50
2019-01-28T07:25:35.973Z,1.50
2019-01-28T07:28:06.228Z,1.50
2019-01-28T07:30:38.083Z,1.50
2019-01-28T07:33:08.098Z,1.50
2019-01-28T07:35:38.073Z,1.50
2019-01-28T07:38:08.075Z,1.40
2019-01-28T07:40:38.024Z,1.50
2019-01-28T07:43:07.954Z,1.50
2019-01-28T07:45:44.892Z,1.50
2019-01-28T07:48:10.241Z,1.40
2019-01-28T07:50:40.351Z,1.40
2019-01-28T07:53:10.323Z,1.40
2019-01-28T07:55:40.365Z,1.40
2019-01-28T07:58:10.357Z,1.40
2019-01-28T08:00:40.243Z,1.40
2019-01-28T08:03:10.142Z,1.40
2019-01-28T08:05:40.328Z,1.40
2019-01-28T08:08:10.636Z,1.40
2019-01-28T08:10:41.663Z,1.40
2019-01-28T08:13:11.678Z,1.30
2019-01-28T08:15:45.256Z,1.30
2019-01-28T08:18:15.096Z,1.30
2019-01-28T08:20:45.114Z,1.30
2019-01-28T08:23:14.954Z,1.30
2019-01-28T08:25:44.969Z,1.20
2019-01-28T08:28:14.940Z,1.20
2019-01-28T08:30:44.999Z,1.20
2019-01-28T08:33:15.286Z,1.20
2019-01-28T08:35:45.307Z,1.10
2019-01-28T08:38:15.207Z,1.10
2019-01-28T08:40:45.170Z,1.10
2019-01-28T08:43:15.071Z,1.10
2019-01-28T08:45:46.665Z,1.00
2019-01-28T08:48:18.411Z,1.00
2019-01-28T08:50:48.133Z,1.00
2019-01-28T08:53:18.121Z,0.90
2019-01-28T08:55:48.132Z,0.90
2019-01-28T08:58:18.118Z,0.90
2019-01-28T09:00:48.046Z,0.90
2019-01-28T09:03:17.946Z,0.90
2019-01-28T09:05:47.799Z,0.90
2019-01-28T09:08:17.719Z,0.90
2019-01-28T09:10:47.718Z,0.90
2019-01-28T09:13:17.707Z,0.90
2019-01-28T09:15:47.696Z,0.90
2019-01-28T09:18:17.708Z,0.90
2019-01-28T09:20:47.624Z,0.80
2019-01-28T09:23:17.640Z,0.90
2019-01-28T09:25:47.648Z,0.80
2019-01-28T09:28:17.670Z,0.80
2019-01-28T09:30:48.850Z,0.80
2019-01-28T09:33:18.867Z,0.80
2019-01-28T09:35:48.709Z,0.80
2019-01-28T09:38:18.711Z,0.70
2019-01-28T09:40:48.616Z,0.80
2019-01-28T09:43:18.631Z,0.80
2019-01-28T09:45:48.600Z,0.80
2019-01-28T09:48:18.528Z,0.80
2019-01-28T09:50:48.511Z,0.80
2019-01-28T09:53:18.529Z,0.80
2019-01-28T09:55:48.500Z,0.80
2019-01-28T09:58:18.470Z,0.80
2019-01-28T10:00:51.940Z,0.80
2019-01-28T10:03:21.948Z,0.90
2019-01-28T10:05:51.939Z,0.90
2019-01-28T10:08:21.855Z,0.90
2019-01-28T10:10:52.016Z,0.90
2019-01-28T10:13:22.054Z,1.00
2019-01-28T10:15:52.151Z,1.00
2019-01-28T10:18:22.201Z,1.00
2019-01-28T10:20:52.234Z,1.10
2019-01-28T10:23:22.444Z,1.20
2019-01-28T10:25:57.626Z,1.20
2019-01-28T10:28:24.104Z,1.30
2019-01-28T10:30:54.364Z,1.40
2019-01-28T10:33:24.325Z,1.40
2019-01-28T10:35:54.306Z,1.50
2019-01-28T10:38:24.307Z,1.50
2019-01-28T10:40:54.301Z,1.60
2019-01-28T10:43:24.161Z,1.60
2019-01-28T10:45:54.065Z,1.60
2019-01-28T10:48:24.108Z,1.60
2019-01-28T10:50:54.077Z,1.70
2019-01-28T10:53:23.950Z,1.70
2019-01-28T10:55:53.915Z,1.70
2019-01-28T10:58:23.809Z,1.70
2019-01-28T11:00:53.898Z,1.80
2019-01-28T11:03:25.615Z,1.80
2019-01-28T11:05:55.651Z,1.80
2019-01-28T11:08:25.508Z,1.90
2019-01-28T11:10:55.528Z,2.80
2019-01-28T11:13:25.593Z,1.90
2019-01-28T11:15:55.533Z,2.00
2019-01-28T11:18:27.575Z,2.00
2019-01-28T11:20:57.585Z,2.00
2019-01-28T11:23:27.880Z,2.00
2019-01-28T11:25:58.113Z,2.10
2019-01-28T11:28:28.447Z,2.10
2019-01-28T11:31:02.316Z,2.10
2019-01-28T11:33:32.335Z,2.20
2019-01-28T11:36:05.459Z,2.20
2019-01-28T11:38:34.286Z,2.20
2019-01-28T11:41:04.513Z,2.20
2019-01-28T11:43:34.589Z,2.20
2019-01-28T11:46:07.139Z,2.30
2019-01-28T11:48:37.189Z,2.30
2019-01-28T11:51:07.227Z,2.30
2019-01-28T11:53:37.260Z,2.30
2019-01-28T11:56:07.237Z,2.30
2019-01-28T11:58:37.171Z,2.40
2019-01-28T12:01:23.308Z,2.30
2019-01-28T12:03:54.287Z,2.40
2019-01-28T12:06:24.275Z,2.40
2019-01-28T12:08:54.275Z,2.40
2019-01-28T12:11:24.276Z,2.50
2019-01-28T12:13:54.515Z,2.50
2019-01-28T12:16:24.500Z,2.50
2019-01-28T12:18:54.503Z,2.40
2019-01-28T12:21:24.574Z,2.40
2019-01-28T12:23:54.550Z,2.40
2019-01-28T12:26:24.530Z,2.30
2019-01-28T12:28:54.548Z,2.30
2019-01-28T12:31:24.556Z,2.20
2019-01-28T12:33:54.531Z,2.20
2019-01-28T12:36:24.575Z,2.10
2019-01-28T12:38:54.431Z,2.10
2019-01-28T12:41:24.428Z,2.10
2019-01-28T12:43:54.446Z,2.10
2019-01-28T12:46:24.515Z,2.10
2019-01-28T12:48:54.459Z,2.10
2019-01-28T12:51:24.343Z,2.10
2019-01-28T12:53:54.327Z,2.20
2019-01-28T12:56:24.244Z,2.20
2019-01-28T12:58:54.197Z,2.30
2019-01-28T13:01:24.094Z,2.30
2019-01-28T13:03:54.103Z,2.40
2019-01-28T13:06:24.017Z,2.40
2019-01-28T13:08:53.876Z,2.50
2019-01-28T13:11:23.800Z,2.50
2019-01-28T13:13:53.736Z,2.60
2019-01-28T13:16:23.640Z,2.70
2019-01-28T13:18:53.584Z,2.80
2019-01-28T13:21:23.568Z,2.90
2019-01-28T13:23:53.429Z,2.90
2019-01-28T13:26:23.403Z,3.00
2019-01-28T13:28:53.429Z,3.00
2019-01-28T13:31:23.364Z,3.00
2019-01-28T13:33:53.283Z,3.10
2019-01-28T13:36:23.271Z,3.10
2019-01-28T13:38:53.287Z,3.20
2019-01-28T13:41:23.215Z,3.30
2019-01-28T13:43:53.049Z,3.30
2019-01-28T13:46:26.262Z,3.40
2019-01-28T13:48:56.373Z,3.40
2019-01-28T13:51:26.386Z,3.50
2019-01-28T13:53:56.446Z,3.50
2019-01-28T13:56:28.111Z,3.60
2019-01-28T13:58:57.821Z,3.60
2019-01-28T14:01:27.796Z,3.60
2019-01-28T14:03:58.632Z,3.70
2019-01-28T14:06:28.596Z,3.70
2019-01-28T14:08:58.530Z,3.70
2019-01-28T14:11:28.365Z,3.70
2019-01-28T14:13:58.220Z,3.70
2019-01-28T14:16:28.129Z,3.70
2019-01-28T14:18:57.984Z,3.70
2019-01-28T14:21:27.879Z,3.70
2019-01-28T14:23:57.727Z,3.80
2019-01-28T14:26:27.640Z,3.90
2019-01-28T14:28:57.661Z,4.00
2019-01-28T14:31:27.513Z,4.10
2019-01-28T14:33:57.407Z,4.10
2019-01-28T14:36:27.526Z,4.10
2019-01-28T14:38:57.621Z,4.20
2019-01-28T14:41:27.658Z,4.10
2019-01-28T14:43:57.630Z,4.10
2019-01-28T14:46:27.563Z,4.00
2019-01-28T14:48:57.394Z,4.00
2019-01-28T14:51:27.567Z,4.00
2019-01-28T14:53:58.069Z,4.00
2019-01-28T14:56:28.082Z,4.00
2019-01-28T14:58:58.124Z,3.90
2019-01-28T15:01:28.611Z,3.90
2019-01-28T15:03:58.730Z,3.90
2019-01-28T15:06:28.720Z,3.80
2019-01-28T15:08:58.748Z,3.80
2019-01-28T15:11:28.840Z,3.80
2019-01-28T15:13:58.742Z,3.80
2019-01-28T15:16:28.678Z,3.80
2019-01-28T15:18:58.595Z,3.80
2019-01-28T15:21:47.680Z,3.80
2019-01-28T15:24:17.577Z,3.70
2019-01-28T15:27:06.740Z,3.70
2019-01-28T15:29:48.504Z,3.70
2019-01-28T15:32:30.570Z,3.60
2019-01-28T15:35:12.169Z,3.60
2019-01-28T15:37:53.798Z,3.50
2019-01-28T15:40:35.504Z,3.40
2019-01-28T15:43:17.717Z,3.40
2019-01-28T15:45:47.643Z,3.30
2019-01-28T15:54:17.457Z,3.40
2019-01-28T15:56:47.492Z,3.20
2019-01-28T15:59:55.950Z,3.20
2019-01-28T16:02:37.599Z,3.10
2019-01-28T16:05:19.064Z,3.10
2019-01-28T16:08:00.505Z,3.10
2019-01-28T16:10:42.225Z,3.00
2019-01-28T16:13:24.072Z,3.00
2019-01-28T16:16:04.602Z,3.00
2019-01-28T16:18:53.663Z,3.00
2019-01-28T16:21:35.339Z,3.00
2019-01-28T16:24:16.866Z,3.00
2019-01-28T16:26:58.468Z,3.00
2019-01-28T16:29:40.309Z,2.90
2019-01-28T16:32:21.928Z,2.90
2019-01-28T16:35:03.437Z,2.80
2019-01-28T16:37:44.948Z,2.80
2019-01-28T16:40:26.444Z,2.90
2019-01-28T16:43:08.889Z,2.90
2019-01-28T16:45:51.015Z,2.90
2019-01-28T16:48:32.514Z,2.90
2019-01-28T16:51:14.639Z,2.90
2019-01-28T16:53:56.554Z,2.90
2019-01-28T16:56:38.102Z,2.90
2019-01-28T16:59:20.105Z,2.90
2019-01-28T17:02:02.080Z,2.80
2019-01-28T17:04:44.056Z,2.80
2019-01-28T17:07:25.608Z,2.80
2019-01-28T17:10:07.005Z,2.80
2019-01-28T17:12:48.924Z,2.80
2019-01-28T17:15:30.413Z,2.80
2019-01-28T17:18:12.776Z,2.80
2019-01-28T17:20:54.580Z,2.70
2019-01-28T17:23:36.309Z,2.70
2019-01-28T17:26:18.228Z,2.70
2019-01-28T17:28:59.656Z,2.60
2019-01-28T17:31:29.556Z,2.60
2019-01-28T17:34:18.688Z,2.60
2019-01-28T17:37:07.856Z,2.60
2019-01-28T17:39:49.416Z,2.50
2019-01-28T17:42:31.248Z,2.50
2019-01-28T17:45:12.677Z,2.50
2019-01-28T17:47:42.730Z,2.50
2019-01-28T17:50:31.843Z,2.40
2019-01-28T17:53:13.564Z,2.40
2019-01-28T17:55:55.225Z,2.40
2019-01-28T17:58:37.035Z,2.40
2019-01-28T18:01:19.092Z,2.40
2019-01-28T18:04:01.332Z,2.30
2019-01-28T18:06:42.672Z,2.30
2019-01-28T18:09:24.243Z,2.30
2019-01-28T18:12:05.983Z,2.20
2019-01-28T18:14:47.732Z,2.20
2019-01-28T18:17:29.723Z,2.20
2019-01-28T18:20:11.927Z,2.20
2019-01-28T18:22:53.371Z,2.10
2019-01-28T18:25:35.521Z,2.10
2019-01-28T18:31:40.299Z,2.00
2019-01-28T18:34:22.412Z,2.00
2019-01-28T18:37:03.793Z,2.00
2019-01-28T18:39:45.254Z,2.00
2019-01-28T18:42:15.111Z,2.00
2019-01-28T18:45:25.105Z,2.00
2019-01-28T18:48:14.207Z,2.00
2019-01-28T18:50:59.761Z,1.90
2019-01-28T18:56:39.388Z,1.90
2019-01-28T18:59:21.571Z,1.90
2019-01-28T19:02:03.107Z,1.90
2019-01-28T19:04:44.783Z,1.80
2019-01-28T19:14:33.881Z,1.80
2019-01-28T19:17:34.596Z,1.80
2019-01-28T19:20:30.715Z,1.80
2019-01-28T19:23:13.126Z,1.70
2019-01-28T19:25:55.729Z,1.70
2019-01-28T19:28:38.035Z,1.70
2019-01-28T19:31:20.400Z,1.70
2019-01-28T19:34:02.775Z,1.70
2019-01-28T19:36:45.300Z,1.60
2019-01-28T19:39:27.795Z,1.60
2019-01-28T19:42:10.177Z,1.60
2019-01-28T19:44:52.256Z,1.50
2019-01-28T19:47:34.434Z,1.50
2019-01-28T19:50:16.587Z,1.50
2019-01-28T19:53:00.512Z,1.50
2019-01-28T19:55:43.184Z,1.40
2019-01-28T19:58:25.437Z,1.40
2019-01-28T20:01:07.812Z,1.40
2019-01-28T20:03:49.510Z,1.40
2019-01-28T20:06:32.287Z,1.50
2019-01-28T20:09:14.880Z,1.50
2019-01-28T20:11:59.244Z,1.50
2019-01-28T20:14:41.679Z,1.50
2019-01-28T20:17:23.670Z,1.50
2019-01-28T20:19:54.601Z,1.50
2019-01-28T20:22:44.442Z,1.50
2019-01-28T20:25:35.655Z,1.50
2019-01-28T20:28:36.788Z,1.50
2019-01-28T20:31:06.750Z,1.50
2019-01-28T20:33:57.627Z,1.50
2019-01-28T20:36:59.425Z,1.50
2019-01-28T20:39:29.339Z,1.50
2019-01-28T20:41:59.277Z,1.50
2019-01-28T20:44:29.301Z,1.50
2019-01-28T20:47:00.096Z,1.50
2019-01-28T20:49:49.617Z,1.50
2019-01-28T20:52:39.414Z,1.50
2019-01-28T20:55:21.100Z,1.50
2019-01-28T20:58:03.358Z,1.60
2019-01-28T21:00:45.689Z,1.50
2019-01-28T21:03:27.685Z,1.50
2019-01-28T21:06:09.530Z,1.50
2019-01-28T21:08:51.860Z,1.50
2019-01-28T21:11:34.070Z,1.50
2019-01-28T21:14:15.668Z,1.60
2019-01-28T21:16:57.621Z,1.60
2019-01-28T21:19:39.164Z,1.60
2019-01-28T21:22:21.190Z,1.60
2019-01-28T21:25:03.248Z,1.60
2019-01-28T21:27:44.685Z,1.60
2019-01-28T21:30:26.943Z,1.60
2019-01-28T21:33:08.775Z,1.60
2019-01-28T21:36:09.788Z,1.60
2019-01-28T21:38:52.747Z,1.60
2019-01-28T21:41:34.581Z,1.60
2019-01-28T21:44:16.391Z,1.60
2019-01-28T21:46:58.687Z,1.60
2019-01-28T21:49:40.355Z,1.50
2019-01-28T21:52:20.463Z,1.50
2019-01-28T21:55:09.621Z,1.50
2019-01-28T21:57:39.447Z,1.50
2019-01-28T22:00:30.173Z,1.50
2019-01-28T22:03:31.782Z,1.50
2019-01-28T22:06:13.364Z,1.50
2019-01-28T22:08:54.917Z,1.50
2019-01-28T22:11:36.388Z,1.50
2019-01-28T22:14:17.804Z,1.50
2019-01-28T22:16:59.441Z,1.50
2019-01-28T22:19:40.904Z,1.50
2019-01-28T22:22:22.823Z,1.50
2019-01-28T22:25:04.755Z,1.50
2019-01-28T22:27:47.050Z,1.60
2019-01-28T22:30:28.645Z,1.60
2019-01-28T22:33:10.570Z,1.60
2019-01-28T22:35:50.896Z,1.60
2019-01-28T22:38:40.278Z,1.60
2019-01-28T22:41:42.785Z,1.60
2019-01-28T22:44:24.192Z,1.60
2019-01-28T22:47:05.727Z,1.60
2019-01-28T22:49:35.559Z,1.60
2019-01-28T22:52:24.853Z,1.60
2019-01-28T22:55:33.492Z,1.60
2019-01-28T22:58:15.649Z,1.60
2019-01-28T23:00:57.509Z,1.60
2019-01-28T23:03:37.693Z,1.60
2019-01-28T23:06:19.232Z,1.60
2019-01-28T23:08:51.656Z,1.50
2019-01-28T23:11:40.809Z,1.60
2019-01-28T23:14:29.931Z,1.50
2019-01-28T23:17:19.300Z,1.50
2019-01-28T23:20:10.080Z,1.50
2019-01-28T23:22:54.022Z,1.50
2019-01-28T23:25:35.764Z,1.50
2019-01-28T23:28:17.248Z,1.50
2019-01-28T23:30:58.663Z,1.50
2019-01-28T23:33:40.356Z,1.50
2019-01-28T23:36:22.066Z,1.50
2019-01-28T23:39:04.194Z,1.50
2019-01-28T23:41:45.900Z,1.50
2019-01-28T23:44:28.098Z,1.50
2019-01-28T23:47:10.448Z,1.50
2019-01-28T23:49:52.581Z,1.50
2019-01-28T23:52:34.013Z,1.50
2019-01-28T23:55:16.247Z,1.50
2019-01-28T23:57:58.484Z,1.50
